Time;durP1;ratioP1;P1;durP2;ratioP2;P2;SDS_P1;SDS_P2;PMS_P1;PMS_P2;Temp;Humidity;BMP_temperature;BMP_pressure;BME280_temperature;BME280_humidity;BME280_pressure;Samples;Min_cycle;Max_cycle;Signal;HPM_P1;HPM_P2
2022/10/11 00:00:54;;;;;;;8.47;4.17;;;9.50;99.90;;;;;;5054372;28;21009;-79
2022/10/11 00:03:22;;;;;;;12.60;3.80;;;9.50;99.90;;;;;;5055148;28;20443;-80
2022/10/11 00:05:53;;;;;;;15.47;3.60;;;9.50;99.90;;;;;;5056045;28;20517;-79
2022/10/11 00:08:22;;;;;;;11.10;3.53;;;9.50;99.90;;;;;;5055468;28;20453;-80
2022/10/11 00:10:59;;;;;;;10.23;3.97;;;9.50;99.90;;;;;;5056581;28;20453;-79
2022/10/11 00:13:28;;;;;;;9.35;3.80;;;9.40;99.90;;;;;;5054402;28;20945;-78
2022/10/11 00:15:57;;;;;;;9.90;3.93;;;9.50;99.90;;;;;;5056186;28;20697;-78
2022/10/11 00:18:25;;;;;;;10.70;3.63;;;9.50;99.90;;;;;;5057844;28;20458;-81
2022/10/11 00:21:01;;;;;;;10.20;4.10;;;9.50;99.90;;;;;;5064149;28;20445;-81
2022/10/11 00:23:30;;;;;;;16.90;4.33;;;9.40;99.90;;;;;;5072046;28;20460;-79
2022/10/11 00:26:01;;;;;;;12.03;4.40;;;9.40;99.90;;;;;;5061845;28;20895;-79
2022/10/11 00:28:30;;;;;;;14.13;4.60;;;9.40;99.90;;;;;;5056247;28;20446;-81
2022/10/11 00:30:58;;;;;;;11.97;4.40;;;9.40;99.90;;;;;;5055683;28;20446;-81
2022/10/11 00:33:27;;;;;;;11.60;4.10;;;9.40;99.90;;;;;;5055989;28;20472;-81
2022/10/11 00:35:55;;;;;;;9.30;3.60;;;9.30;99.90;;;;;;5055149;28;20466;-81
2022/10/11 00:38:23;;;;;;;9.90;4.00;;;9.30;99.90;;;;;;5055253;28;20943;-80
2022/10/11 00:40:51;;;;;;;12.10;4.20;;;9.30;99.90;;;;;;5055023;28;20449;-81
2022/10/11 00:43:23;;;;;;;11.03;4.33;;;9.30;99.90;;;;;;5055233;28;20446;-81
2022/10/11 00:46:24;;;;;;;10.13;3.80;;;9.30;99.90;;;;;;5054904;28;20482;-81
2022/10/11 00:48:57;;;;;;;10.70;4.20;;;9.30;99.90;;;;;;5056148;28;20468;-80
2022/10/11 00:51:37;;;;;;;10.77;3.80;;;9.20;99.90;;;;;;5054301;28;20924;-80
2022/10/11 00:54:07;;;;;;;10.00;3.70;;;9.20;99.90;;;;;;5054697;28;20434;-80
2022/10/11 00:56:37;;;;;;;14.47;4.00;;;9.20;99.90;;;;;;5055753;28;20458;-80
2022/10/11 00:59:14;;;;;;;9.30;4.00;;;9.20;99.90;;;;;;5057867;28;20438;-81
2022/10/11 01:01:43;;;;;;;15.57;5.13;;;9.20;99.90;;;;;;5055204;28;20457;-80
2022/10/11 01:04:11;;;;;;;15.43;4.40;;;9.20;99.90;;;;;;5055060;28;20533;-81
2022/10/11 01:06:40;;;;;;;11.83;4.90;;;9.20;99.90;;;;;;5054870;28;20457;-81
2022/10/11 01:09:09;;;;;;;10.20;4.83;;;9.20;99.90;;;;;;5056946;28;20515;-81
2022/10/11 01:11:41;;;;;;;11.70;4.50;;;9.20;99.90;;;;;;5057862;28;20450;-80
2022/10/11 01:14:36;;;;;;;11.60;3.70;;;9.10;99.90;;;;;;5059282;28;20529;-81
2022/10/11 01:17:13;;;;;;;9.80;4.10;;;9.10;99.90;;;;;;5057764;28;20450;-81
2022/10/11 01:20:00;;;;;;;13.80;3.70;;;9.10;99.90;;;;;;5057100;28;20440;-81
2022/10/11 01:22:49;;;;;;;11.67;3.97;;;9.10;99.90;;;;;;5059283;28;20454;-79
2022/10/11 01:25:27;;;;;;;12.70;4.70;;;9.10;99.90;;;;;;5057407;28;20477;-81
2022/10/11 01:28:10;;;;;;;9.37;4.33;;;9.00;99.90;;;;;;5057323;28;20449;-79
2022/10/11 01:30:41;;;;;;;13.97;4.47;;;9.10;99.90;;;;;;5057312;28;20874;-81
2022/10/11 01:33:27;;;;;;;14.53;4.60;;;9.00;99.90;;;;;;5057422;28;20438;-81
2022/10/11 01:36:05;;;;;;;9.60;4.37;;;9.10;99.90;;;;;;5057333;28;20827;-80
2022/10/11 01:38:37;;;;;;;12.30;3.63;;;9.00;99.90;;;;;;5058547;28;20896;-79
2022/10/11 01:41:10;;;;;;;9.30;3.40;;;9.00;99.90;;;;;;5058543;28;20455;-80
2022/10/11 01:43:40;;;;;;;8.43;3.90;;;9.00;99.90;;;;;;5058273;28;20492;-81
2022/10/11 01:46:11;;;;;;;12.37;4.27;;;9.00;99.90;;;;;;5056977;28;20466;-81
2022/10/11 01:48:50;;;;;;;8.20;4.30;;;9.00;99.90;;;;;;5056791;28;20444;-79
2022/10/11 01:51:21;;;;;;;12.20;5.20;;;8.90;99.90;;;;;;5056695;28;20444;-81
2022/10/11 01:54:13;;;;;;;15.23;4.43;;;9.00;99.90;;;;;;5057115;28;20434;-80
2022/10/11 01:57:04;;;;;;;11.37;4.27;;;8.90;99.90;;;;;;5057283;28;20449;-80
2022/10/11 01:59:44;;;;;;;9.70;3.70;;;8.90;99.90;;;;;;5057449;28;20447;-80
2022/10/11 02:02:29;;;;;;;12.77;4.00;;;8.90;99.90;;;;;;5056927;28;20462;-81
2022/10/11 02:05:05;;;;;;;11.03;3.70;;;8.90;99.90;;;;;;5056815;28;20482;-79
2022/10/11 02:07:40;;;;;;;9.87;3.40;;;8.90;99.90;;;;;;5055932;28;20453;-80
2022/10/11 02:10:15;;;;;;;11.10;4.20;;;8.90;99.90;;;;;;5056256;28;20923;-79
2022/10/11 02:12:48;;;;;;;10.47;4.27;;;8.90;99.90;;;;;;5056056;28;20472;-79
2022/10/11 02:15:18;;;;;;;8.60;3.60;;;8.80;99.90;;;;;;5056938;28;20469;-81
2022/10/11 02:17:54;;;;;;;14.17;4.17;;;8.80;99.90;;;;;;5055869;28;20445;-80
2022/10/11 02:20:26;;;;;;;9.90;3.77;;;8.80;99.90;;;;;;5055254;28;20442;-80
2022/10/11 02:23:03;;;;;;;12.73;4.23;;;8.80;99.90;;;;;;5055728;28;20458;-82
2022/10/11 02:25:35;;;;;;;11.30;4.10;;;8.80;99.90;;;;;;5055952;28;20457;-79
2022/10/11 02:28:09;;;;;;;11.30;4.30;;;8.80;99.90;;;;;;5057159;28;20811;-81
2022/10/11 02:30:37;;;;;;;13.70;4.23;;;8.80;99.90;;;;;;5057032;28;20422;-80
2022/10/11 02:33:11;;;;;;;13.03;4.40;;;8.80;99.90;;;;;;5057185;28;20438;-80
2022/10/11 02:35:45;;;;;;;10.70;4.90;;;8.70;99.90;;;;;;5055450;28;20470;-79
2022/10/11 02:38:20;;;;;;;12.80;4.40;;;8.70;99.90;;;;;;5057728;28;20880;-80
2022/10/11 02:40:54;;;;;;;8.97;4.00;;;8.70;99.90;;;;;;5056795;28;20434;-80
2022/10/11 02:43:29;;;;;;;12.30;4.30;;;8.70;99.90;;;;;;5056530;28;20971;-81
2022/10/11 02:46:00;;;;;;;11.60;3.43;;;8.70;99.90;;;;;;5055486;28;20481;-80
2022/10/11 02:48:32;;;;;;;9.23;3.50;;;8.70;99.90;;;;;;5055457;28;20537;-81
2022/10/11 02:51:00;;;;;;;12.80;4.10;;;8.70;99.90;;;;;;5056957;28;20942;-80
2022/10/11 02:53:28;;;;;;;12.73;4.53;;;8.60;99.90;;;;;;5055457;28;20456;-80
2022/10/11 02:55:56;;;;;;;13.90;4.23;;;8.60;99.90;;;;;;5056776;28;20466;-81
2022/10/11 02:58:25;;;;;;;11.33;4.30;;;8.60;99.90;;;;;;5055999;28;20446;-81
2022/10/11 03:00:53;;;;;;;9.93;3.77;;;8.60;99.90;;;;;;5056540;28;20446;-81
2022/10/11 03:03:21;;;;;;;11.60;4.27;;;8.60;99.90;;;;;;5056646;28;20500;-81
2022/10/11 03:05:50;;;;;;;11.43;3.87;;;9.30;99.90;;;;;;5057534;28;20454;-82
2022/10/11 03:08:18;;;;;;;14.40;4.47;;;8.60;99.90;;;;;;5056866;28;20458;-82
2022/10/11 03:10:47;;;;;;;8.00;3.57;;;8.60;99.90;;;;;;5056625;28;20987;-82
2022/10/11 03:13:15;;;;;;;13.87;4.00;;;8.60;99.90;;;;;;5057454;28;20504;-81
2022/10/11 03:15:48;;;;;;;8.97;3.50;;;8.60;99.90;;;;;;5055997;28;20995;-80
2022/10/11 03:18:30;;;;;;;10.60;3.47;;;8.60;99.90;;;;;;5056629;28;20947;-82
2022/10/11 03:20:59;;;;;;;10.30;3.70;;;8.50;99.90;;;;;;5057343;28;20447;-81
2022/10/11 03:23:27;;;;;;;8.70;4.07;;;8.50;99.90;;;;;;5056112;28;20469;-81
2022/10/11 03:25:56;;;;;;;13.27;4.77;;;8.50;99.90;;;;;;5055623;28;20469;-81
2022/10/11 03:28:24;;;;;;;11.13;4.10;;;8.50;99.90;;;;;;5057151;28;21023;-81
2022/10/11 03:30:52;;;;;;;11.27;4.00;;;8.40;99.90;;;;;;5055482;28;20454;-80
2022/10/11 03:33:21;;;;;;;8.83;4.17;;;8.50;99.90;;;;;;5055448;28;20814;-80
2022/10/11 03:35:49;;;;;;;11.73;3.80;;;8.50;99.90;;;;;;5056654;28;20519;-81
2022/10/11 03:38:22;;;;;;;8.77;4.10;;;8.40;99.90;;;;;;5057422;28;20537;-81
2022/10/11 03:40:50;;;;;;;7.53;3.73;;;8.40;99.90;;;;;;5055076;28;20903;-80
2022/10/11 03:43:18;;;;;;;10.03;4.17;;;8.40;99.90;;;;;;5055830;28;20544;-81
2022/10/11 03:45:46;;;;;;;10.20;4.10;;;8.40;99.90;;;;;;5056865;28;20469;-81
2022/10/11 03:48:15;;;;;;;12.33;4.53;;;8.40;99.90;;;;;;5056957;28;20442;-81
2022/10/11 03:50:43;;;;;;;12.30;4.47;;;8.40;99.90;;;;;;5055051;28;20461;-81
2022/10/11 03:53:11;;;;;;;12.80;4.73;;;8.30;99.90;;;;;;5056101;28;20939;-81
2022/10/11 03:55:41;;;;;;;12.07;4.70;;;8.40;99.90;;;;;;5057302;28;20469;-80
2022/10/11 03:58:10;;;;;;;14.90;4.83;;;8.30;99.90;;;;;;5058133;28;20481;-80
2022/10/11 04:00:39;;;;;;;12.13;4.37;;;8.30;99.90;;;;;;5054357;28;20951;-80
2022/10/11 04:03:07;;;;;;;13.00;3.97;;;8.30;99.90;;;;;;5055891;28;20473;-80
2022/10/11 04:05:35;;;;;;;10.27;5.03;;;8.30;99.90;;;;;;5055765;28;20867;-81
2022/10/11 04:08:03;;;;;;;14.63;4.60;;;8.30;99.90;;;;;;5054810;28;20453;-80
2022/10/11 04:10:39;;;;;;;11.40;5.20;;;8.30;99.90;;;;;;5054371;28;20882;-80
2022/10/11 04:13:10;;;;;;;16.37;6.57;;;8.20;99.90;;;;;;5054641;28;20805;-80
2022/10/11 04:15:40;;;;;;;15.13;6.37;;;8.30;99.90;;;;;;5054252;28;20480;-81
2022/10/11 04:18:08;;;;;;;9.77;5.23;;;8.30;99.90;;;;;;5054563;28;20978;-80
2022/10/11 04:20:36;;;;;;;12.87;5.47;;;8.20;99.90;;;;;;5054047;28;20448;-81
2022/10/11 04:23:04;;;;;;;12.20;5.17;;;8.20;99.90;;;;;;5054441;28;20472;-81
2022/10/11 04:25:32;;;;;;;10.43;4.50;;;8.20;99.90;;;;;;5054789;28;20465;-81
2022/10/11 04:28:01;;;;;;;11.80;4.77;;;8.20;99.90;;;;;;5054411;28;20457;-80
2022/10/11 04:30:30;;;;;;;12.00;5.87;;;8.20;99.90;;;;;;5056033;28;20839;-80
2022/10/11 04:32:58;;;;;;;11.00;5.00;;;8.20;99.90;;;;;;5054674;28;20457;-79
2022/10/11 04:35:26;;;;;;;11.70;5.33;;;8.10;99.90;;;;;;5060864;28;20465;-80
2022/10/11 04:37:55;;;;;;;15.27;4.87;;;8.10;99.90;;;;;;5062861;28;20533;-80
2022/10/11 04:40:23;;;;;;;10.80;4.57;;;8.10;99.90;;;;;;5065568;28;20445;-81
2022/10/11 04:42:52;;;;;;;10.07;4.70;;;8.10;99.90;;;;;;5065478;28;20502;-80
2022/10/11 04:45:21;;;;;;;12.90;4.80;;;8.10;99.90;;;;;;5067600;28;20482;-80
2022/10/11 04:47:50;;;;;;;11.80;5.30;;;8.10;99.90;;;;;;5067640;28;20461;-80
2022/10/11 04:50:19;;;;;;;14.13;5.00;;;8.10;99.90;;;;;;5068124;28;20515;-80
2022/10/11 04:52:47;;;;;;;12.10;4.60;;;8.10;99.90;;;;;;5067461;28;20811;-80
2022/10/11 04:55:15;;;;;;;12.00;4.60;;;8.10;99.90;;;;;;5067952;28;20474;-80
2022/10/11 04:57:44;;;;;;;11.07;4.23;;;8.10;99.90;;;;;;5067581;28;20446;-80
2022/10/11 05:00:13;;;;;;;10.90;4.47;;;8.10;99.90;;;;;;5070113;28;20481;-80
2022/10/11 05:02:41;;;;;;;12.17;4.97;;;8.10;99.90;;;;;;5070112;28;20444;-80
2022/10/11 05:05:11;;;;;;;11.93;4.30;;;8.00;99.90;;;;;;5068595;28;21001;-80
2022/10/11 05:07:39;;;;;;;10.77;4.30;;;8.10;99.90;;;;;;5064289;28;20970;-79
2022/10/11 05:10:09;;;;;;;9.97;4.00;;;8.10;99.90;;;;;;5063392;28;20473;-80
2022/10/11 05:12:37;;;;;;;8.43;4.60;;;8.00;99.90;;;;;;5062264;28;20552;-79
2022/10/11 05:15:07;;;;;;;11.00;4.93;;;8.00;99.90;;;;;;5062649;28;20476;-79
2022/10/11 05:17:35;;;;;;;8.40;4.13;;;8.00;99.90;;;;;;5064367;28;20441;-79
2022/10/11 05:20:03;;;;;;;12.10;4.33;;;8.00;99.90;;;;;;5061645;28;20454;-78
2022/10/11 05:22:33;;;;;;;13.63;4.60;;;8.00;99.90;;;;;;5062159;28;20441;-79
2022/10/11 05:25:01;;;;;;;18.47;5.07;;;8.00;99.90;;;;;;5062520;28;20484;-78
2022/10/11 05:27:29;;;;;;;13.47;4.77;;;8.00;99.90;;;;;;5062646;28;20456;-79
2022/10/11 05:29:57;;;;;;;10.30;4.20;;;8.00;99.90;;;;;;5063450;28;20458;-79
2022/10/11 05:32:25;;;;;;;12.63;4.70;;;8.00;99.90;;;;;;5063214;28;20447;-80
2022/10/11 05:34:55;;;;;;;9.63;4.60;;;8.00;99.90;;;;;;5063687;28;20461;-79
2022/10/11 05:37:23;;;;;;;12.20;5.43;;;7.90;99.90;;;;;;5062638;28;20449;-78
2022/10/11 05:39:53;;;;;;;10.30;4.67;;;7.90;99.90;;;;;;5064375;28;20434;-78
2022/10/11 05:42:21;;;;;;;10.40;5.00;;;7.90;99.90;;;;;;5063861;28;20428;-79
2022/10/11 05:44:50;;;;;;;13.50;5.10;;;7.90;99.90;;;;;;5064278;28;20491;-79
2022/10/11 05:47:18;;;;;;;10.67;5.80;;;7.90;99.90;;;;;;5066900;28;20943;-79
2022/10/11 05:49:46;;;;;;;9.00;4.37;;;7.90;99.90;;;;;;5062234;28;20441;-79
2022/10/11 05:52:18;;;;;;;15.07;5.10;;;7.90;99.90;;;;;;5063882;28;20430;-79
2022/10/11 05:54:46;;;;;;;13.37;5.67;;;7.90;99.90;;;;;;5063693;28;21076;-79
2022/10/11 05:57:16;;;;;;;11.47;4.83;;;7.90;99.90;;;;;;5066308;28;20445;-79
2022/10/11 05:59:45;;;;;;;10.03;4.80;;;7.90;99.90;;;;;;5064559;28;20959;-80
2022/10/11 06:02:14;;;;;;;7.67;4.30;;;7.90;99.90;;;;;;5064008;28;20458;-79
2022/10/11 06:04:42;;;;;;;10.07;4.57;;;7.80;99.90;;;;;;5063507;28;20492;-79
2022/10/11 06:07:10;;;;;;;10.00;4.40;;;7.80;99.90;;;;;;5062596;28;20463;-79
2022/10/11 06:09:38;;;;;;;10.90;4.70;;;7.80;99.90;;;;;;5062531;28;20460;-79
2022/10/11 06:12:07;;;;;;;11.50;5.03;;;7.80;99.90;;;;;;5062346;28;20449;-79
2022/10/11 06:14:37;;;;;;;11.50;4.30;;;7.80;99.90;;;;;;5062060;28;20874;-79
2022/10/11 06:17:05;;;;;;;12.33;5.03;;;7.90;99.90;;;;;;5061735;28;20450;-79
2022/10/11 06:19:33;;;;;;;11.83;5.40;;;7.80;99.90;;;;;;5062415;28;20454;-79
2022/10/11 06:22:01;;;;;;;12.57;4.90;;;7.80;99.90;;;;;;5066136;28;20479;-78
2022/10/11 06:24:29;;;;;;;13.63;5.13;;;7.80;99.90;;;;;;5062896;28;20490;-78
2022/10/11 06:26:57;;;;;;;12.40;5.53;;;7.80;99.90;;;;;;5061404;28;20453;-79
2022/10/11 06:29:26;;;;;;;10.60;4.10;;;7.80;99.90;;;;;;5061200;28;20460;-79
2022/10/11 06:31:55;;;;;;;19.07;7.53;;;7.80;99.90;;;;;;5059400;28;20438;-79
2022/10/11 06:34:23;;;;;;;32.23;9.60;;;7.80;99.90;;;;;;5065061;28;20452;-79
2022/10/11 06:36:52;;;;;;;61.47;15.27;;;7.80;99.90;;;;;;5065019;28;20862;-80
2022/10/11 06:39:20;;;;;;;59.70;14.67;;;7.80;99.90;;;;;;5064805;28;20457;-80
2022/10/11 06:41:48;;;;;;;56.50;17.00;;;7.80;99.90;;;;;;5063632;28;20852;-80
2022/10/11 06:44:17;;;;;;;41.60;11.97;;;7.90;99.90;;;;;;5065387;28;20467;-81
2022/10/11 06:46:45;;;;;;;32.37;11.77;;;7.90;99.90;;;;;;5065306;28;20457;-79
2022/10/11 06:49:14;;;;;;;34.93;9.57;;;7.90;99.90;;;;;;5066150;28;20468;-80
2022/10/11 06:51:50;;;;;;;17.37;5.90;;;7.90;99.90;;;;;;5067107;28;20796;-80
2022/10/11 06:54:18;;;;;;;16.57;6.10;;;7.90;99.90;;;;;;5065831;28;20462;-79
2022/10/11 06:56:46;;;;;;;22.33;7.70;;;7.90;99.90;;;;;;5065772;28;21018;-80
2022/10/11 06:59:14;;;;;;;13.47;6.23;;;7.90;99.90;;;;;;5065598;28;20488;-80
2022/10/11 07:01:43;;;;;;;16.50;6.60;;;7.90;99.90;;;;;;5072451;28;20453;-80
2022/10/11 07:04:11;;;;;;;17.60;5.30;;;8.00;99.90;;;;;;5072937;28;20552;-79
2022/10/11 07:06:41;;;;;;;11.60;5.67;;;8.00;99.90;;;;;;5071940;28;20488;-79
2022/10/11 07:09:10;;;;;;;11.33;4.97;;;8.00;99.90;;;;;;5072837;28;20472;-79
2022/10/11 07:11:38;;;;;;;12.30;5.23;;;8.00;99.90;;;;;;5072513;28;20454;-79
2022/10/11 07:14:06;;;;;;;11.43;5.13;;;8.10;99.90;;;;;;5070876;28;20475;-79
2022/10/11 07:16:35;;;;;;;14.63;6.17;;;8.10;99.90;;;;;;5071815;28;20434;-80
2022/10/11 07:19:05;;;;;;;8.93;5.00;;;8.10;99.90;;;;;;5073192;28;20445;-79
2022/10/11 07:21:35;;;;;;;14.77;5.53;;;8.10;99.90;;;;;;5072475;28;20456;-79
2022/10/11 07:24:05;;;;;;;11.70;5.57;;;8.10;99.90;;;;;;5073292;28;20442;-79
2022/10/11 07:26:33;;;;;;;12.30;5.30;;;8.20;99.90;;;;;;5070689;28;20484;-77
2022/10/11 07:29:06;;;;;;;14.20;5.67;;;8.20;99.90;;;;;;5066242;28;20823;-79
2022/10/11 07:31:36;;;;;;;13.27;5.40;;;8.30;99.90;;;;;;5071260;28;20439;-79
2022/10/11 07:34:04;;;;;;;14.40;5.93;;;8.30;99.90;;;;;;5070674;28;20447;-79
2022/10/11 07:36:32;;;;;;;15.60;6.27;;;8.30;99.90;;;;;;5071148;28;20450;-80
2022/10/11 07:39:00;;;;;;;9.00;4.80;;;8.40;99.90;;;;;;5070891;28;20505;-79
2022/10/11 07:41:30;;;;;;;11.63;5.10;;;8.40;99.90;;;;;;5071970;28;20449;-80
2022/10/11 07:43:59;;;;;;;13.57;4.87;;;8.50;99.90;;;;;;5074086;28;20946;-79
2022/10/11 07:46:28;;;;;;;11.03;5.73;;;8.40;99.90;;;;;;5074288;28;20474;-79
2022/10/11 07:48:56;;;;;;;12.30;5.50;;;8.50;99.90;;;;;;5069358;28;20441;-79
2022/10/11 07:51:24;;;;;;;15.43;5.40;;;8.60;99.90;;;;;;5068823;28;20525;-78
2022/10/11 07:53:54;;;;;;;16.20;5.97;;;8.60;99.90;;;;;;5060413;28;20434;-79
2022/10/11 07:56:24;;;;;;;23.23;7.17;;;8.70;99.90;;;;;;5059562;28;20496;-80
2022/10/11 07:58:56;;;;;;;10.57;5.77;;;8.80;99.90;;;;;;5060228;28;20459;-78
2022/10/11 08:01:25;;;;;;;16.70;5.57;;;9.00;99.90;;;;;;5060192;28;20452;-78
2022/10/11 08:03:55;;;;;;;13.27;5.00;;;9.00;99.90;;;;;;5058051;28;20441;-79
2022/10/11 08:06:29;;;;;;;13.13;5.30;;;9.20;99.90;;;;;;5058601;28;20497;-78
2022/10/11 08:08:59;;;;;;;12.80;5.30;;;9.30;99.90;;;;;;5057997;28;20434;-78
2022/10/11 08:11:29;;;;;;;8.70;4.70;;;9.40;99.90;;;;;;5058630;28;20439;-78
2022/10/11 08:14:00;;;;;;;9.83;4.20;;;9.50;99.90;;;;;;5056734;28;20446;-79
2022/10/11 08:16:28;;;;;;;12.77;4.37;;;9.60;99.90;;;;;;5058619;28;20453;-78
2022/10/11 08:18:57;;;;;;;11.20;3.90;;;9.70;99.90;;;;;;5058314;28;20449;-78
2022/10/11 08:21:26;;;;;;;11.07;4.27;;;9.80;99.90;;;;;;5061484;28;20446;-78
2022/10/11 08:23:54;;;;;;;9.07;4.07;;;9.90;99.90;;;;;;5061396;28;20442;-79
2022/10/11 08:26:22;;;;;;;12.70;4.40;;;10.00;99.90;;;;;;5061963;28;20474;-78
2022/10/11 08:28:50;;;;;;;11.30;4.33;;;10.10;99.90;;;;;;5059772;28;20871;-78
2022/10/11 08:31:20;;;;;;;8.50;2.90;;;10.20;99.90;;;;;;5062236;28;20457;-78
2022/10/11 08:33:49;;;;;;;11.30;3.97;;;10.30;99.90;;;;;;5059080;28;20883;-77
2022/10/11 08:36:17;;;;;;;11.73;4.47;;;10.30;99.90;;;;;;5059438;28;20472;-78
2022/10/11 08:38:45;;;;;;;9.70;4.07;;;10.40;99.90;;;;;;5060226;28;20805;-79
2022/10/11 08:41:29;;;;;;;19.63;4.40;;;10.50;99.90;;;;;;5061555;28;20958;-79
2022/10/11 08:44:11;;;;;;;11.80;4.00;;;10.50;99.90;;;;;;5061271;28;20438;-79
2022/10/11 08:46:45;;;;;;;13.03;3.90;;;10.60;99.90;;;;;;5059259;28;20983;-78
2022/10/11 08:49:24;;;;;;;12.90;3.80;;;10.70;99.90;;;;;;5059449;28;20477;-78
2022/10/11 08:51:58;;;;;;;10.60;4.00;;;10.80;99.90;;;;;;5058053;28;20452;-79
2022/10/11 08:54:37;;;;;;;12.07;4.20;;;10.80;99.90;;;;;;5060536;28;20421;-77
2022/10/11 08:57:07;;;;;;;8.97;3.30;;;10.90;99.90;;;;;;5060824;28;20529;-79
2022/10/11 08:59:41;;;;;;;10.10;3.87;;;11.00;99.90;;;;;;5060788;28;20453;-79
2022/10/11 09:02:23;;;;;;;9.50;3.83;;;11.10;99.90;;;;;;5060586;28;20445;-78
2022/10/11 09:04:54;;;;;;;14.10;4.93;;;11.10;99.90;;;;;;5063534;28;20584;-81
2022/10/11 09:07:36;;;;;;;11.60;3.70;;;11.20;99.90;;;;;;5061146;28;20476;-81
2022/10/11 09:10:20;;;;;;;11.90;3.37;;;11.30;99.90;;;;;;5060689;28;20434;-79
2022/10/11 09:12:58;;;;;;;14.37;4.23;;;11.40;99.90;;;;;;5058378;28;20442;-79
2022/10/11 09:15:36;;;;;;;16.60;4.23;;;11.50;99.90;;;;;;5057807;28;20462;-78
2022/10/11 09:18:30;;;;;;;9.90;3.30;;;11.50;99.90;;;;;;5057835;28;20442;-78
2022/10/11 09:21:11;;;;;;;10.47;3.47;;;11.60;99.90;;;;;;5058323;28;20468;-80
2022/10/11 09:23:59;;;;;;;10.30;3.13;;;11.60;99.90;;;;;;5059030;28;20449;-79
2022/10/11 09:26:31;;;;;;;9.80;3.27;;;11.70;99.90;;;;;;5059636;28;20994;-79
2022/10/11 09:29:08;;;;;;;9.13;4.00;;;11.80;99.90;;;;;;5057195;28;20775;-80
2022/10/11 09:31:36;;;;;;;9.27;3.60;;;11.90;99.90;;;;;;5056692;28;20452;-80
2022/10/11 09:34:13;;;;;;;17.23;4.27;;;11.90;99.90;;;;;;5059366;28;20438;-79
2022/10/11 09:36:49;;;;;;;9.97;4.10;;;12.00;99.90;;;;;;5059452;28;20422;-80
2022/10/11 09:39:27;;;;;;;12.10;3.60;;;12.10;99.90;;;;;;5058268;28;20450;-80
2022/10/11 09:42:00;;;;;;;6.57;2.97;;;12.20;99.90;;;;;;5059447;28;20533;-81
2022/10/11 09:44:32;;;;;;;11.97;3.90;;;12.30;99.90;;;;;;5062211;28;20469;-81
2022/10/11 09:47:01;;;;;;;8.70;3.60;;;12.30;99.90;;;;;;5061746;28;20454;-80
2022/10/11 09:49:35;;;;;;;9.43;3.43;;;12.40;99.90;;;;;;5061362;28;20442;-82
2022/10/11 09:52:06;;;;;;;16.43;4.10;;;12.40;99.90;;;;;;5059686;28;20452;-80
2022/10/11 09:54:39;;;;;;;10.00;3.30;;;12.50;99.90;;;;;;5058136;28;20466;-81
2022/10/11 09:57:21;;;;;;;10.33;3.37;;;12.60;99.90;;;;;;5059258;28;20438;-79
2022/10/11 10:00:07;;;;;;;11.37;3.70;;;12.60;99.90;;;;;;5060403;28;20426;-80
2022/10/11 10:02:43;;;;;;;11.23;3.57;;;12.70;99.90;;;;;;5059555;28;20983;-79
2022/10/11 10:05:21;;;;;;;12.13;3.33;;;12.70;99.90;;;;;;5059129;28;20485;-80
2022/10/11 10:08:02;;;;;;;8.93;2.83;;;12.80;99.90;;;;;;5059245;28;20492;-79
2022/10/11 10:10:38;;;;;;;7.13;2.90;;;12.90;99.90;;;;;;5058550;28;20806;-81
2022/10/11 10:13:19;;;;;;;12.80;3.87;;;12.90;99.90;;;;;;5058241;28;20430;-80
2022/10/11 10:15:50;;;;;;;10.30;2.90;;;13.00;99.90;;;;;;5057800;28;20479;-80
2022/10/11 10:18:23;;;;;;;11.17;2.63;;;13.10;99.90;;;;;;5057964;28;20449;-79
2022/10/11 10:20:55;;;;;;;9.93;2.63;;;13.10;99.90;;;;;;5058017;28;20527;-79
2022/10/11 10:23:26;;;;;;;14.13;3.13;;;13.20;99.90;;;;;;5059274;28;20443;-78
2022/10/11 10:26:11;;;;;;;15.77;3.20;;;13.20;99.90;;;;;;5059569;28;20469;-79
2022/10/11 10:28:53;;;;;;;13.00;4.27;;;13.30;99.90;;;;;;5060026;28;20491;-80
2022/10/11 10:31:23;;;;;;;14.10;3.10;;;13.40;99.90;;;;;;5056979;28;20924;-80
2022/10/11 10:33:54;;;;;;;9.63;2.87;;;13.40;99.90;;;;;;5057977;28;20454;-80
2022/10/11 10:36:27;;;;;;;7.90;2.77;;;13.50;99.90;;;;;;5058971;28;20506;-81
2022/10/11 10:39:01;;;;;;;8.57;3.60;;;13.50;99.90;;;;;;5059159;28;20526;-82
2022/10/11 10:41:29;;;;;;;11.27;3.30;;;13.60;99.90;;;;;;5057984;28;20537;-81
2022/10/11 10:43:59;;;;;;;11.43;3.27;;;13.70;99.90;;;;;;5057775;28;20442;-81
2022/10/11 10:46:38;;;;;;;11.93;2.53;;;13.70;99.90;;;;;;5059426;28;20524;-80
2022/10/11 10:49:13;;;;;;;10.43;2.80;;;13.80;99.90;;;;;;5058077;28;20430;-78
2022/10/11 10:52:29;;;;;;;6.83;3.23;;;13.90;99.90;;;;;;5057137;28;20481;-81
2022/10/11 10:55:03;;;;;;;10.13;2.63;;;14.00;99.90;;;;;;5057945;28;20987;-82
2022/10/11 10:57:37;;;;;;;10.53;3.40;;;14.00;99.90;;;;;;5060827;28;20446;-81
2022/10/11 11:00:14;;;;;;;7.20;2.80;;;14.10;99.90;;;;;;5063348;28;20578;-79
2022/10/11 11:02:50;;;;;;;9.07;2.60;;;14.10;99.90;;;;;;5065872;28;20476;-79
2022/10/11 11:05:27;;;;;;;12.97;3.07;;;14.20;99.90;;;;;;5067182;28;20537;-81
2022/10/11 11:08:04;;;;;;;10.83;3.67;;;14.20;99.90;;;;;;5066698;28;20540;-80
2022/10/11 11:10:38;;;;;;;9.10;2.50;;;14.30;99.90;;;;;;5062689;28;20444;-81
2022/10/11 11:13:19;;;;;;;8.17;3.60;;;14.30;99.90;;;;;;5058530;28;20446;-80
2022/10/11 11:15:55;;;;;;;11.50;3.50;;;14.30;99.90;;;;;;5056602;28;20470;-80
2022/10/11 11:18:38;;;;;;;11.20;2.97;;;14.40;99.90;;;;;;5057033;28;20438;-79
2022/10/11 11:21:26;;;;;;;10.53;2.97;;;14.40;99.90;;;;;;5058622;28;21026;-81
2022/10/11 11:24:04;;;;;;;8.63;2.50;;;14.50;99.90;;;;;;5059065;28;20450;-79
2022/10/11 11:26:44;;;;;;;8.27;2.83;;;14.50;99.90;;;;;;5055888;28;20497;-82
2022/10/11 11:29:25;;;;;;;10.97;2.60;;;14.60;99.90;;;;;;5057145;28;20430;-79
2022/10/11 11:32:11;;;;;;;11.10;3.70;;;14.60;99.90;;;;;;5057300;28;20810;-79
2022/10/11 11:34:43;;;;;;;5.80;1.90;;;14.70;99.90;;;;;;5058156;28;20469;-78
2022/10/11 11:37:22;;;;;;;10.43;2.37;;;14.70;99.90;;;;;;5057042;28;20453;-79
2022/10/11 11:39:57;;;;;;;11.63;2.97;;;14.80;99.90;;;;;;5056924;28;20438;-79
2022/10/11 11:42:30;;;;;;;13.47;3.30;;;14.80;99.90;;;;;;5057304;28;20536;-79
2022/10/11 11:45:05;;;;;;;7.20;3.63;;;14.80;99.90;;;;;;5056984;28;20469;-82
2022/10/11 11:47:37;;;;;;;9.07;2.73;;;14.80;99.90;;;;;;5059346;28;20472;-79
2022/10/11 11:50:21;;;;;;;8.60;2.57;;;14.80;99.90;;;;;;5059411;28;20446;-81
2022/10/11 11:52:54;;;;;;;12.23;2.60;;;14.80;99.90;;;;;;5059214;28;20451;-80
2022/10/11 11:55:31;;;;;;;6.27;2.47;;;14.90;99.90;;;;;;5058610;28;20538;-81
2022/10/11 11:58:08;;;;;;;9.93;2.20;;;14.90;99.90;;;;;;5062611;28;20456;-81
2022/10/11 12:00:48;;;;;;;9.63;2.70;;;15.00;99.90;;;;;;5060458;28;20485;-81
2022/10/11 12:03:23;;;;;;;9.97;3.53;;;15.00;99.90;;;;;;5057840;28;20932;-80
2022/10/11 12:06:18;;;;;;;8.23;2.10;;;15.00;99.90;;;;;;5057544;28;20466;-79
2022/10/11 12:08:48;;;;;;;6.73;1.90;;;15.10;99.90;;;;;;5057148;28;20458;-81
2022/10/11 12:11:25;;;;;;;10.00;2.10;;;15.10;99.90;;;;;;5056943;28;20503;-80
2022/10/11 12:13:54;;;;;;;10.53;2.50;;;15.10;99.90;;;;;;5056310;28;20440;-81
2022/10/11 12:16:23;;;;;;;7.47;2.87;;;15.20;99.90;;;;;;5056134;28;20528;-80
2022/10/11 12:19:00;;;;;;;8.40;2.80;;;15.20;99.90;;;;;;5058439;28;20506;-79
2022/10/11 12:21:32;;;;;;;9.37;2.30;;;15.30;99.90;;;;;;5057568;28;20816;-80
2022/10/11 12:24:09;;;;;;;7.60;2.83;;;15.30;99.90;;;;;;5058950;28;20430;-78
2022/10/11 12:26:41;;;;;;;9.03;2.57;;;15.40;99.90;;;;;;5057128;28;20924;-80
2022/10/11 12:29:38;;;;;;;6.33;1.90;;;15.40;99.90;;;;;;5063179;28;20454;-81
2022/10/11 12:32:51;;;;;;;8.97;2.30;;;15.50;99.90;;;;;;5062984;28;20446;-80
2022/10/11 12:35:52;;;;;;;5.23;1.97;;;15.50;99.90;;;;;;5061080;28;20584;-80
2022/10/11 12:38:22;;;;;;;8.10;2.30;;;15.50;99.90;;;;;;5061776;28;20450;-79
2022/10/11 12:40:53;;;;;;;6.13;1.90;;;15.60;99.90;;;;;;5058316;28;20465;-82
2022/10/11 12:43:32;;;;;;;6.80;2.10;;;15.60;99.90;;;;;;5055536;28;20537;-82
2022/10/11 12:46:39;;;;;;;6.60;2.30;;;15.60;99.90;;;;;;5056254;28;20509;-80
2022/10/11 12:49:21;;;;;;;6.67;2.20;;;15.60;99.90;;;;;;4990776;28;20509;-81
2022/10/11 12:51:59;;;;;;;6.20;2.63;;;15.50;99.90;;;;;;5055630;28;20445;-79
2022/10/11 12:54:55;;;;;;;5.50;2.00;;;15.50;99.90;;;;;;5056040;28;20453;-81
2022/10/11 12:58:00;;;;;;;7.70;2.00;;;15.50;99.90;;;;;;5048955;28;20469;-80
2022/10/11 13:00:32;;;;;;;6.70;2.07;;;15.60;99.90;;;;;;5058442;28;20426;-79
2022/10/11 13:03:03;;;;;;;7.70;1.87;;;15.70;99.90;;;;;;5055515;28;20426;-80
2022/10/11 13:05:42;;;;;;;7.97;2.13;;;15.70;99.90;;;;;;5056159;28;20986;-81
2022/10/11 13:08:23;;;;;;;4.20;1.40;;;15.70;99.90;;;;;;5058748;28;20545;-80
2022/10/11 13:10:53;;;;;;;7.30;2.53;;;15.80;99.90;;;;;;5059473;28;20416;-78
2022/10/11 13:13:23;;;;;;;5.33;2.40;;;15.80;99.90;;;;;;5057886;28;20826;-78
2022/10/11 13:15:56;;;;;;;7.30;2.20;;;15.80;99.90;;;;;;5058418;28;20473;-79